sensor_id;sensor_type;location;lat;lon;timestamp;P1;durP1;ratioP1;P2;durP2;ratioP2
19854;SDS011;10088;47.946;2.532;2023-10-19T00:01:40;5.67;;;1.30;;
19854;SDS011;10088;47.946;2.532;2023-10-19T00:04:05;11.17;;;1.80;;
19854;SDS011;10088;47.946;2.532;2023-10-19T00:06:32;3.07;;;0.97;;
19854;SDS011;10088;47.946;2.532;2023-10-19T00:08:57;4.23;;;1.13;;
19854;SDS011;10088;47.946;2.532;2023-10-19T00:11:24;7.77;;;1.37;;
19854;SDS011;10088;47.946;2.532;2023-10-19T00:13:51;6.40;;;2.27;;
19854;SDS011;10088;47.946;2.532;2023-10-19T00:16:19;6.37;;;1.47;;
19854;SDS011;10088;47.946;2.532;2023-10-19T00:18:48;8.47;;;1.93;;
19854;SDS011;10088;47.946;2.532;2023-10-19T00:21:14;4.23;;;1.60;;
19854;SDS011;10088;47.946;2.532;2023-10-19T00:23:46;6.23;;;1.50;;
19854;SDS011;10088;47.946;2.532;2023-10-19T00:26:16;7.57;;;1.93;;
19854;SDS011;10088;47.946;2.532;2023-10-19T00:28:45;3.87;;;1.13;;
19854;SDS011;10088;47.946;2.532;2023-10-19T00:31:13;6.57;;;1.60;;
19854;SDS011;10088;47.946;2.532;2023-10-19T00:33:38;6.40;;;1.77;;
19854;SDS011;10088;47.946;2.532;2023-10-19T00:36:04;9.73;;;1.80;;
19854;SDS011;10088;47.946;2.532;2023-10-19T00:38:36;10.73;;;2.07;;
19854;SDS011;10088;47.946;2.532;2023-10-19T00:41:02;11.20;;;1.57;;
19854;SDS011;10088;47.946;2.532;2023-10-19T00:43:32;6.10;;;1.37;;
19854;SDS011;10088;47.946;2.532;2023-10-19T00:46:00;7.07;;;1.30;;
19854;SDS011;10088;47.946;2.532;2023-10-19T00:48:28;5.63;;;1.50;;
19854;SDS011;10088;47.946;2.532;2023-10-19T00:50:54;8.60;;;2.80;;
19854;SDS011;10088;47.946;2.532;2023-10-19T00:53:32;11.10;;;1.67;;
19854;SDS011;10088;47.946;2.532;2023-10-19T00:55:57;8.33;;;1.67;;
19854;SDS011;10088;47.946;2.532;2023-10-19T00:58:24;4.83;;;1.03;;
19854;SDS011;10088;47.946;2.532;2023-10-19T01:00:54;6.17;;;1.60;;
19854;SDS011;10088;47.946;2.532;2023-10-19T01:03:20;6.13;;;1.33;;
19854;SDS011;10088;47.946;2.532;2023-10-19T01:05:45;9.60;;;1.50;;
19854;SDS011;10088;47.946;2.532;2023-10-19T01:08:13;11.60;;;2.27;;
19854;SDS011;10088;47.946;2.532;2023-10-19T01:10:49;9.07;;;1.83;;
19854;SDS011;10088;47.946;2.532;2023-10-19T01:13:17;7.57;;;1.60;;
19854;SDS011;10088;47.946;2.532;2023-10-19T01:15:43;7.93;;;1.03;;
19854;SDS011;10088;47.946;2.532;2023-10-19T01:18:08;4.40;;;1.27;;
19854;SDS011;10088;47.946;2.532;2023-10-19T01:20:38;7.03;;;1.30;;
19854;SDS011;10088;47.946;2.532;2023-10-19T01:23:16;7.83;;;1.33;;
19854;SDS011;10088;47.946;2.532;2023-10-19T01:25:52;6.77;;;1.70;;
19854;SDS011;10088;47.946;2.532;2023-10-19T01:30:54;8.13;;;1.83;;
19854;SDS011;10088;47.946;2.532;2023-10-19T01:33:22;9.43;;;1.57;;
19854;SDS011;10088;47.946;2.532;2023-10-19T01:35:48;7.93;;;1.60;;
19854;SDS011;10088;47.946;2.532;2023-10-19T01:38:32;6.80;;;1.50;;
19854;SDS011;10088;47.946;2.532;2023-10-19T01:40:58;4.20;;;1.43;;
19854;SDS011;10088;47.946;2.532;2023-10-19T01:43:26;5.00;;;1.33;;
19854;SDS011;10088;47.946;2.532;2023-10-19T01:45:55;7.73;;;1.60;;
19854;SDS011;10088;47.946;2.532;2023-10-19T01:48:21;10.80;;;1.67;;
19854;SDS011;10088;47.946;2.532;2023-10-19T01:50:53;8.23;;;1.17;;
19854;SDS011;10088;47.946;2.532;2023-10-19T01:53:18;3.87;;;1.07;;
19854;SDS011;10088;47.946;2.532;2023-10-19T01:55:46;10.03;;;1.57;;
19854;SDS011;10088;47.946;2.532;2023-10-19T01:58:13;5.17;;;0.97;;
19854;SDS011;10088;47.946;2.532;2023-10-19T02:00:39;7.17;;;1.27;;
19854;SDS011;10088;47.946;2.532;2023-10-19T02:03:07;9.43;;;2.80;;
19854;SDS011;10088;47.946;2.532;2023-10-19T02:05:33;6.60;;;1.27;;
19854;SDS011;10088;47.946;2.532;2023-10-19T02:08:04;4.83;;;1.60;;
19854;SDS011;10088;47.946;2.532;2023-10-19T02:10:32;11.27;;;1.40;;
19854;SDS011;10088;47.946;2.532;2023-10-19T02:12:57;8.90;;;1.50;;
19854;SDS011;10088;47.946;2.532;2023-10-19T02:15:23;7.60;;;1.47;;
19854;SDS011;10088;47.946;2.532;2023-10-19T02:17:48;7.90;;;1.67;;
19854;SDS011;10088;47.946;2.532;2023-10-19T02:20:14;9.73;;;1.60;;
19854;SDS011;10088;47.946;2.532;2023-10-19T02:22:49;10.47;;;1.40;;
19854;SDS011;10088;47.946;2.532;2023-10-19T02:25:17;4.80;;;1.13;;
19854;SDS011;10088;47.946;2.532;2023-10-19T02:27:42;11.17;;;1.53;;
19854;SDS011;10088;47.946;2.532;2023-10-19T02:30:10;3.70;;;1.33;;
19854;SDS011;10088;47.946;2.532;2023-10-19T02:32:36;5.47;;;1.33;;
19854;SDS011;10088;47.946;2.532;2023-10-19T02:35:02;5.57;;;1.20;;
19854;SDS011;10088;47.946;2.532;2023-10-19T02:37:28;7.83;;;1.63;;
19854;SDS011;10088;47.946;2.532;2023-10-19T02:39:53;6.77;;;1.67;;
19854;SDS011;10088;47.946;2.532;2023-10-19T02:42:18;6.63;;;1.30;;
19854;SDS011;10088;47.946;2.532;2023-10-19T02:44:43;5.27;;;1.13;;
19854;SDS011;10088;47.946;2.532;2023-10-19T02:47:09;10.07;;;2.37;;
19854;SDS011;10088;47.946;2.532;2023-10-19T02:49:34;7.50;;;1.30;;
19854;SDS011;10088;47.946;2.532;2023-10-19T02:52:03;6.20;;;1.60;;
19854;SDS011;10088;47.946;2.532;2023-10-19T02:54:28;7.07;;;1.60;;
19854;SDS011;10088;47.946;2.532;2023-10-19T02:56:58;12.77;;;1.70;;
19854;SDS011;10088;47.946;2.532;2023-10-19T02:59:24;5.83;;;1.73;;
19854;SDS011;10088;47.946;2.532;2023-10-19T03:04:15;3.43;;;1.00;;
19854;SDS011;10088;47.946;2.532;2023-10-19T03:06:41;5.20;;;1.10;;
19854;SDS011;10088;47.946;2.532;2023-10-19T03:09:06;6.47;;;0.90;;
19854;SDS011;10088;47.946;2.532;2023-10-19T03:11:42;3.53;;;1.03;;
19854;SDS011;10088;47.946;2.532;2023-10-19T03:14:07;5.83;;;1.13;;
19854;SDS011;10088;47.946;2.532;2023-10-19T03:16:33;3.37;;;1.27;;
19854;SDS011;10088;47.946;2.532;2023-10-19T03:19:00;7.43;;;1.40;;
19854;SDS011;10088;47.946;2.532;2023-10-19T03:21:25;7.33;;;1.73;;
19854;SDS011;10088;47.946;2.532;2023-10-19T03:23:57;4.63;;;1.07;;
19854;SDS011;10088;47.946;2.532;2023-10-19T03:26:24;5.13;;;1.10;;
19854;SDS011;10088;47.946;2.532;2023-10-19T03:28:56;3.70;;;0.83;;
19854;SDS011;10088;47.946;2.532;2023-10-19T03:31:22;6.20;;;1.27;;
19854;SDS011;10088;47.946;2.532;2023-10-19T03:33:48;6.87;;;1.23;;
19854;SDS011;10088;47.946;2.532;2023-10-19T03:36:19;5.97;;;1.10;;
19854;SDS011;10088;47.946;2.532;2023-10-19T03:38:44;4.73;;;1.40;;
19854;SDS011;10088;47.946;2.532;2023-10-19T03:41:10;3.83;;;1.10;;
19854;SDS011;10088;47.946;2.532;2023-10-19T03:43:36;4.53;;;1.20;;
19854;SDS011;10088;47.946;2.532;2023-10-19T03:46:05;6.17;;;1.70;;
19854;SDS011;10088;47.946;2.532;2023-10-19T03:48:39;5.33;;;1.20;;
19854;SDS011;10088;47.946;2.532;2023-10-19T03:51:04;5.03;;;1.10;;
19854;SDS011;10088;47.946;2.532;2023-10-19T03:53:30;4.13;;;0.93;;
19854;SDS011;10088;47.946;2.532;2023-10-19T03:55:56;8.97;;;1.30;;
19854;SDS011;10088;47.946;2.532;2023-10-19T03:58:22;6.37;;;1.20;;
19854;SDS011;10088;47.946;2.532;2023-10-19T04:00:47;9.10;;;1.37;;
19854;SDS011;10088;47.946;2.532;2023-10-19T04:03:16;5.67;;;1.33;;
19854;SDS011;10088;47.946;2.532;2023-10-19T04:05:42;4.03;;;1.17;;
19854;SDS011;10088;47.946;2.532;2023-10-19T04:08:11;4.10;;;1.33;;
19854;SDS011;10088;47.946;2.532;2023-10-19T04:10:45;4.37;;;1.13;;
19854;SDS011;10088;47.946;2.532;2023-10-19T04:13:12;4.63;;;1.07;;
19854;SDS011;10088;47.946;2.532;2023-10-19T04:15:37;1.87;;;1.00;;
19854;SDS011;10088;47.946;2.532;2023-10-19T04:18:03;8.07;;;1.00;;
19854;SDS011;10088;47.946;2.532;2023-10-19T04:20:35;8.43;;;1.20;;
19854;SDS011;10088;47.946;2.532;2023-10-19T04:23:15;4.63;;;1.27;;
19854;SDS011;10088;47.946;2.532;2023-10-19T04:25:41;2.27;;;0.70;;
19854;SDS011;10088;47.946;2.532;2023-10-19T04:28:06;5.57;;;1.23;;
19854;SDS011;10088;47.946;2.532;2023-10-19T04:30:32;6.33;;;1.10;;
19854;SDS011;10088;47.946;2.532;2023-10-19T04:32:58;5.80;;;1.00;;
19854;SDS011;10088;47.946;2.532;2023-10-19T04:35:24;2.93;;;1.10;;
19854;SDS011;10088;47.946;2.532;2023-10-19T04:37:54;2.77;;;0.87;;
19854;SDS011;10088;47.946;2.532;2023-10-19T04:40:20;4.53;;;1.00;;
19854;SDS011;10088;47.946;2.532;2023-10-19T04:42:46;2.97;;;0.83;;
19854;SDS011;10088;47.946;2.532;2023-10-19T04:45:11;3.47;;;0.90;;
19854;SDS011;10088;47.946;2.532;2023-10-19T04:47:37;5.77;;;0.90;;
19854;SDS011;10088;47.946;2.532;2023-10-19T04:50:03;3.37;;;0.90;;
19854;SDS011;10088;47.946;2.532;2023-10-19T04:52:29;3.87;;;1.00;;
19854;SDS011;10088;47.946;2.532;2023-10-19T04:54:54;2.03;;;0.70;;
19854;SDS011;10088;47.946;2.532;2023-10-19T04:57:19;2.40;;;0.70;;
19854;SDS011;10088;47.946;2.532;2023-10-19T04:59:46;3.13;;;0.60;;
19854;SDS011;10088;47.946;2.532;2023-10-19T05:02:11;3.47;;;0.97;;
19854;SDS011;10088;47.946;2.532;2023-10-19T05:04:36;2.03;;;0.83;;
19854;SDS011;10088;47.946;2.532;2023-10-19T05:07:01;2.47;;;0.83;;
19854;SDS011;10088;47.946;2.532;2023-10-19T05:09:28;3.33;;;1.23;;
19854;SDS011;10088;47.946;2.532;2023-10-19T05:11:54;2.73;;;0.80;;
19854;SDS011;10088;47.946;2.532;2023-10-19T05:14:20;5.63;;;1.10;;
19854;SDS011;10088;47.946;2.532;2023-10-19T05:16:45;3.70;;;1.00;;
19854;SDS011;10088;47.946;2.532;2023-10-19T05:19:10;2.60;;;0.70;;
19854;SDS011;10088;47.946;2.532;2023-10-19T05:21:35;3.80;;;1.00;;
19854;SDS011;10088;47.946;2.532;2023-10-19T05:24:01;2.73;;;0.77;;
19854;SDS011;10088;47.946;2.532;2023-10-19T05:26:26;3.27;;;1.03;;
19854;SDS011;10088;47.946;2.532;2023-10-19T05:28:52;6.53;;;0.90;;
19854;SDS011;10088;47.946;2.532;2023-10-19T05:31:17;2.13;;;0.67;;
19854;SDS011;10088;47.946;2.532;2023-10-19T05:33:42;4.73;;;0.90;;
19854;SDS011;10088;47.946;2.532;2023-10-19T05:36:08;4.30;;;1.20;;
19854;SDS011;10088;47.946;2.532;2023-10-19T05:38:34;5.73;;;0.87;;
19854;SDS011;10088;47.946;2.532;2023-10-19T05:40:59;3.87;;;1.10;;
19854;SDS011;10088;47.946;2.532;2023-10-19T05:43:25;4.13;;;1.00;;
19854;SDS011;10088;47.946;2.532;2023-10-19T05:45:50;1.10;;;0.60;;
19854;SDS011;10088;47.946;2.532;2023-10-19T05:48:16;5.13;;;0.90;;
19854;SDS011;10088;47.946;2.532;2023-10-19T05:50:41;4.17;;;0.77;;
19854;SDS011;10088;47.946;2.532;2023-10-19T05:53:07;5.00;;;1.10;;
19854;SDS011;10088;47.946;2.532;2023-10-19T05:55:33;2.60;;;1.00;;
19854;SDS011;10088;47.946;2.532;2023-10-19T05:58:00;6.27;;;1.03;;
19854;SDS011;10088;47.946;2.532;2023-10-19T06:00:26;3.33;;;1.03;;
19854;SDS011;10088;47.946;2.532;2023-10-19T06:02:51;3.77;;;1.00;;
19854;SDS011;10088;47.946;2.532;2023-10-19T06:05:17;1.70;;;0.80;;
19854;SDS011;10088;47.946;2.532;2023-10-19T06:07:47;2.53;;;1.40;;
19854;SDS011;10088;47.946;2.532;2023-10-19T06:10:13;5.17;;;1.13;;
19854;SDS011;10088;47.946;2.532;2023-10-19T06:12:42;3.47;;;0.63;;
19854;SDS011;10088;47.946;2.532;2023-10-19T06:15:08;3.90;;;1.00;;
19854;SDS011;10088;47.946;2.532;2023-10-19T06:17:35;1.73;;;0.70;;
19854;SDS011;10088;47.946;2.532;2023-10-19T06:20:01;1.27;;;0.70;;
19854;SDS011;10088;47.946;2.532;2023-10-19T06:22:26;2.50;;;0.70;;
19854;SDS011;10088;47.946;2.532;2023-10-19T06:24:53;0.97;;;0.70;;
19854;SDS011;10088;47.946;2.532;2023-10-19T06:27:18;3.23;;;0.97;;
19854;SDS011;10088;47.946;2.532;2023-10-19T06:29:44;4.33;;;0.80;;
19854;SDS011;10088;47.946;2.532;2023-10-19T06:32:09;2.63;;;0.80;;
19854;SDS011;10088;47.946;2.532;2023-10-19T06:34:34;6.40;;;1.00;;
19854;SDS011;10088;47.946;2.532;2023-10-19T06:37:00;1.47;;;0.90;;
19854;SDS011;10088;47.946;2.532;2023-10-19T06:39:26;2.20;;;0.80;;
19854;SDS011;10088;47.946;2.532;2023-10-19T06:41:51;2.17;;;0.83;;
19854;SDS011;10088;47.946;2.532;2023-10-19T06:44:17;1.87;;;0.63;;
19854;SDS011;10088;47.946;2.532;2023-10-19T06:46:42;2.57;;;0.87;;
19854;SDS011;10088;47.946;2.532;2023-10-19T06:49:08;1.57;;;0.80;;
19854;SDS011;10088;47.946;2.532;2023-10-19T06:51:33;1.43;;;0.67;;
19854;SDS011;10088;47.946;2.532;2023-10-19T06:53:59;3.23;;;0.60;;
19854;SDS011;10088;47.946;2.532;2023-10-19T06:56:24;0.70;;;0.50;;
19854;SDS011;10088;47.946;2.532;2023-10-19T06:58:49;1.97;;;0.47;;
19854;SDS011;10088;47.946;2.532;2023-10-19T07:01:15;1.60;;;0.60;;
19854;SDS011;10088;47.946;2.532;2023-10-19T07:03:42;2.73;;;0.60;;
19854;SDS011;10088;47.946;2.532;2023-10-19T07:06:08;4.80;;;0.67;;
19854;SDS011;10088;47.946;2.532;2023-10-19T07:08:38;1.63;;;0.80;;
19854;SDS011;10088;47.946;2.532;2023-10-19T07:11:03;1.57;;;0.43;;
19854;SDS011;10088;47.946;2.532;2023-10-19T07:13:29;2.00;;;0.60;;
19854;SDS011;10088;47.946;2.532;2023-10-19T07:15:57;1.80;;;0.77;;
19854;SDS011;10088;47.946;2.532;2023-10-19T07:18:23;0.77;;;0.40;;
19854;SDS011;10088;47.946;2.532;2023-10-19T07:20:49;2.40;;;0.60;;
19854;SDS011;10088;47.946;2.532;2023-10-19T07:23:14;1.80;;;0.40;;
19854;SDS011;10088;47.946;2.532;2023-10-19T07:25:52;7.97;;;0.67;;
19854;SDS011;10088;47.946;2.532;2023-10-19T07:28:21;1.63;;;0.80;;
19854;SDS011;10088;47.946;2.532;2023-10-19T07:30:47;1.37;;;0.70;;
19854;SDS011;10088;47.946;2.532;2023-10-19T07:33:12;2.13;;;0.50;;
19854;SDS011;10088;47.946;2.532;2023-10-19T07:35:42;3.43;;;0.67;;
19854;SDS011;10088;47.946;2.532;2023-10-19T07:38:09;3.80;;;0.60;;
19854;SDS011;10088;47.946;2.532;2023-10-19T07:40:34;2.90;;;0.60;;
19854;SDS011;10088;47.946;2.532;2023-10-19T07:43:00;3.60;;;0.60;;
19854;SDS011;10088;47.946;2.532;2023-10-19T07:45:26;1.40;;;0.63;;
19854;SDS011;10088;47.946;2.532;2023-10-19T07:47:51;1.27;;;0.50;;
19854;SDS011;10088;47.946;2.532;2023-10-19T07:50:16;2.43;;;0.70;;
19854;SDS011;10088;47.946;2.532;2023-10-19T07:52:42;1.13;;;0.50;;
19854;SDS011;10088;47.946;2.532;2023-10-19T07:55:09;1.93;;;0.70;;
19854;SDS011;10088;47.946;2.532;2023-10-19T07:57:34;2.57;;;1.30;;
19854;SDS011;10088;47.946;2.532;2023-10-19T07:59:59;31.13;;;19.63;;
19854;SDS011;10088;47.946;2.532;2023-10-19T08:02:25;28.97;;;18.50;;
19854;SDS011;10088;47.946;2.532;2023-10-19T08:04:50;68.97;;;42.17;;
19854;SDS011;10088;47.946;2.532;2023-10-19T08:07:16;209.43;;;132.40;;
19854;SDS011;10088;47.946;2.532;2023-10-19T08:09:42;118.43;;;72.53;;
19854;SDS011;10088;47.946;2.532;2023-10-19T08:12:07;358.57;;;210.57;;
19854;SDS011;10088;47.946;2.532;2023-10-19T08:14:34;367.23;;;226.00;;
19854;SDS011;10088;47.946;2.532;2023-10-19T08:16:59;104.73;;;73.60;;
19854;SDS011;10088;47.946;2.532;2023-10-19T08:19:25;61.33;;;39.07;;
19854;SDS011;10088;47.946;2.532;2023-10-19T08:21:52;8.50;;;6.53;;
19854;SDS011;10088;47.946;2.532;2023-10-19T08:24:18;10.97;;;9.70;;
19854;SDS011;10088;47.946;2.532;2023-10-19T08:26:44;28.77;;;23.73;;
19854;SDS011;10088;47.946;2.532;2023-10-19T08:29:11;11.87;;;6.77;;
19854;SDS011;10088;47.946;2.532;2023-10-19T08:31:39;18.53;;;14.57;;
19854;SDS011;10088;47.946;2.532;2023-10-19T08:34:05;7.73;;;6.97;;
19854;SDS011;10088;47.946;2.532;2023-10-19T08:36:30;10.33;;;7.63;;
19854;SDS011;10088;47.946;2.532;2023-10-19T08:38:56;38.83;;;32.13;;
19854;SDS011;10088;47.946;2.532;2023-10-19T08:41:21;30.93;;;25.90;;
19854;SDS011;10088;47.946;2.532;2023-10-19T08:43:46;14.47;;;10.37;;
19854;SDS011;10088;47.946;2.532;2023-10-19T08:46:14;34.03;;;26.50;;
19854;SDS011;10088;47.946;2.532;2023-10-19T08:48:39;70.40;;;50.67;;
19854;SDS011;10088;47.946;2.532;2023-10-19T08:51:09;29.63;;;25.93;;
19854;SDS011;10088;47.946;2.532;2023-10-19T08:53:38;104.60;;;84.33;;
19854;SDS011;10088;47.946;2.532;2023-10-19T08:56:09;11.57;;;7.43;;
19854;SDS011;10088;47.946;2.532;2023-10-19T08:58:34;19.33;;;14.83;;
19854;SDS011;10088;47.946;2.532;2023-10-19T09:01:00;28.83;;;20.10;;
19854;SDS011;10088;47.946;2.532;2023-10-19T09:03:31;40.97;;;28.33;;
19854;SDS011;10088;47.946;2.532;2023-10-19T09:05:57;49.77;;;32.50;;
19854;SDS011;10088;47.946;2.532;2023-10-19T09:08:22;50.00;;;34.10;;
19854;SDS011;10088;47.946;2.532;2023-10-19T09:10:48;33.30;;;24.07;;
19854;SDS011;10088;47.946;2.532;2023-10-19T09:13:13;52.57;;;36.30;;
19854;SDS011;10088;47.946;2.532;2023-10-19T09:15:43;137.57;;;101.00;;
19854;SDS011;10088;47.946;2.532;2023-10-19T09:18:15;51.43;;;36.53;;
19854;SDS011;10088;47.946;2.532;2023-10-19T09:20:41;40.50;;;31.23;;
19854;SDS011;10088;47.946;2.532;2023-10-19T09:23:07;37.57;;;29.30;;
19854;SDS011;10088;47.946;2.532;2023-10-19T09:25:33;28.03;;;20.87;;
19854;SDS011;10088;47.946;2.532;2023-10-19T09:28:00;39.80;;;33.33;;
19854;SDS011;10088;47.946;2.532;2023-10-19T09:30:25;5.63;;;5.00;;
19854;SDS011;10088;47.946;2.532;2023-10-19T09:32:51;12.00;;;10.20;;
19854;SDS011;10088;47.946;2.532;2023-10-19T09:35:18;15.23;;;8.47;;
19854;SDS011;10088;47.946;2.532;2023-10-19T09:37:44;13.60;;;9.47;;
19854;SDS011;10088;47.946;2.532;2023-10-19T09:40:10;10.93;;;6.60;;
19854;SDS011;10088;47.946;2.532;2023-10-19T09:42:44;7.27;;;5.53;;
19854;SDS011;10088;47.946;2.532;2023-10-19T09:45:14;10.27;;;7.53;;
19854;SDS011;10088;47.946;2.532;2023-10-19T09:47:41;7.43;;;3.80;;
19854;SDS011;10088;47.946;2.532;2023-10-19T09:50:10;17.10;;;11.20;;
19854;SDS011;10088;47.946;2.532;2023-10-19T09:52:36;6.57;;;4.07;;
19854;SDS011;10088;47.946;2.532;2023-10-19T09:57:32;8.27;;;5.90;;
19854;SDS011;10088;47.946;2.532;2023-10-19T10:00:00;6.43;;;4.63;;
19854;SDS011;10088;47.946;2.532;2023-10-19T10:02:33;7.47;;;4.37;;
19854;SDS011;10088;47.946;2.532;2023-10-19T10:04:58;2.13;;;1.30;;
19854;SDS011;10088;47.946;2.532;2023-10-19T10:07:24;2.97;;;0.93;;
19854;SDS011;10088;47.946;2.532;2023-10-19T10:09:50;6.27;;;4.67;;
19854;SDS011;10088;47.946;2.532;2023-10-19T10:12:17;4.47;;;1.93;;
19854;SDS011;10088;47.946;2.532;2023-10-19T10:21:06;8.60;;;6.63;;
19854;SDS011;10088;47.946;2.532;2023-10-19T10:26:57;7.57;;;4.40;;
19854;SDS011;10088;47.946;2.532;2023-10-19T10:29:24;17.60;;;15.43;;
19854;SDS011;10088;47.946;2.532;2023-10-19T10:32:00;5.13;;;2.53;;
19854;SDS011;10088;47.946;2.532;2023-10-19T10:34:44;5.83;;;2.23;;
19854;SDS011;10088;47.946;2.532;2023-10-19T10:37:13;14.50;;;10.00;;
19854;SDS011;10088;47.946;2.532;2023-10-19T10:40:04;19.07;;;13.10;;
19854;SDS011;10088;47.946;2.532;2023-10-19T10:43:14;27.23;;;17.83;;
19854;SDS011;10088;47.946;2.532;2023-10-19T10:45:51;15.70;;;9.83;;
19854;SDS011;10088;47.946;2.532;2023-10-19T10:48:43;5.57;;;3.80;;
19854;SDS011;10088;47.946;2.532;2023-10-19T10:51:14;6.93;;;4.10;;
19854;SDS011;10088;47.946;2.532;2023-10-19T10:53:51;5.47;;;2.10;;
19854;SDS011;10088;47.946;2.532;2023-10-19T10:56:39;74.97;;;45.33;;
19854;SDS011;10088;47.946;2.532;2023-10-19T10:59:14;8.10;;;5.13;;
19854;SDS011;10088;47.946;2.532;2023-10-19T11:01:47;9.07;;;7.83;;
19854;SDS011;10088;47.946;2.532;2023-10-19T11:04:42;35.63;;;28.07;;
19854;SDS011;10088;47.946;2.532;2023-10-19T11:07:20;66.63;;;40.93;;
19854;SDS011;10088;47.946;2.532;2023-10-19T11:10:26;14.50;;;6.70;;
19854;SDS011;10088;47.946;2.532;2023-10-19T11:13:17;126.50;;;95.33;;
19854;SDS011;10088;47.946;2.532;2023-10-19T11:15:56;15.77;;;14.17;;
19854;SDS011;10088;47.946;2.532;2023-10-19T11:18:33;66.93;;;55.90;;
19854;SDS011;10088;47.946;2.532;2023-10-19T11:21:15;82.40;;;65.93;;
19854;SDS011;10088;47.946;2.532;2023-10-19T11:24:12;3.70;;;2.60;;
19854;SDS011;10088;47.946;2.532;2023-10-19T11:27:03;4.63;;;2.93;;
19854;SDS011;10088;47.946;2.532;2023-10-19T11:29:29;2.47;;;2.03;;
19854;SDS011;10088;47.946;2.532;2023-10-19T11:31:58;6.73;;;3.87;;
19854;SDS011;10088;47.946;2.532;2023-10-19T11:34:24;5.17;;;3.30;;
19854;SDS011;10088;47.946;2.532;2023-10-19T11:36:53;14.47;;;12.17;;
19854;SDS011;10088;47.946;2.532;2023-10-19T11:39:21;12.50;;;11.20;;
19854;SDS011;10088;47.946;2.532;2023-10-19T11:41:48;14.87;;;12.07;;
19854;SDS011;10088;47.946;2.532;2023-10-19T11:44:13;11.13;;;8.67;;
19854;SDS011;10088;47.946;2.532;2023-10-19T11:46:39;1.77;;;1.13;;
19854;SDS011;10088;47.946;2.532;2023-10-19T11:49:04;10.97;;;7.13;;
19854;SDS011;10088;47.946;2.532;2023-10-19T11:51:29;3.27;;;1.83;;
19854;SDS011;10088;47.946;2.532;2023-10-19T11:53:56;10.43;;;5.43;;
19854;SDS011;10088;47.946;2.532;2023-10-19T11:56:21;9.37;;;5.33;;
19854;SDS011;10088;47.946;2.532;2023-10-19T11:58:47;5.60;;;3.47;;
19854;SDS011;10088;47.946;2.532;2023-10-19T12:01:12;7.23;;;5.17;;
19854;SDS011;10088;47.946;2.532;2023-10-19T12:03:38;6.77;;;4.30;;
19854;SDS011;10088;47.946;2.532;2023-10-19T12:06:05;20.53;;;11.90;;
19854;SDS011;10088;47.946;2.532;2023-10-19T12:08:34;31.23;;;22.53;;
19854;SDS011;10088;47.946;2.532;2023-10-19T12:11:01;29.10;;;17.70;;
19854;SDS011;10088;47.946;2.532;2023-10-19T12:13:27;15.00;;;9.63;;
19854;SDS011;10088;47.946;2.532;2023-10-19T12:15:53;17.40;;;11.00;;
19854;SDS011;10088;47.946;2.532;2023-10-19T12:18:20;8.07;;;4.20;;
19854;SDS011;10088;47.946;2.532;2023-10-19T12:20:45;37.57;;;23.20;;
19854;SDS011;10088;47.946;2.532;2023-10-19T12:23:11;25.53;;;18.37;;
19854;SDS011;10088;47.946;2.532;2023-10-19T12:25:36;11.73;;;7.37;;
19854;SDS011;10088;47.946;2.532;2023-10-19T12:28:03;12.13;;;9.17;;
19854;SDS011;10088;47.946;2.532;2023-10-19T12:30:29;6.27;;;3.87;;
19854;SDS011;10088;47.946;2.532;2023-10-19T12:33:00;26.37;;;15.97;;
19854;SDS011;10088;47.946;2.532;2023-10-19T12:35:26;8.90;;;4.63;;
19854;SDS011;10088;47.946;2.532;2023-10-19T12:38:09;21.63;;;16.33;;
19854;SDS011;10088;47.946;2.532;2023-10-19T12:40:41;11.37;;;5.10;;
19854;SDS011;10088;47.946;2.532;2023-10-19T12:43:06;14.03;;;9.33;;
19854;SDS011;10088;47.946;2.532;2023-10-19T12:45:32;4.73;;;3.10;;
19854;SDS011;10088;47.946;2.532;2023-10-19T12:48:02;6.20;;;2.13;;
19854;SDS011;10088;47.946;2.532;2023-10-19T12:50:28;5.87;;;4.77;;
19854;SDS011;10088;47.946;2.532;2023-10-19T12:52:53;8.33;;;5.40;;
19854;SDS011;10088;47.946;2.532;2023-10-19T12:55:21;10.80;;;8.03;;
19854;SDS011;10088;47.946;2.532;2023-10-19T12:57:46;24.90;;;18.20;;
19854;SDS011;10088;47.946;2.532;2023-10-19T13:00:11;31.33;;;19.07;;
19854;SDS011;10088;47.946;2.532;2023-10-19T13:02:51;28.70;;;18.83;;
19854;SDS011;10088;47.946;2.532;2023-10-19T13:05:16;24.43;;;14.53;;
19854;SDS011;10088;47.946;2.532;2023-10-19T13:07:45;22.07;;;12.13;;
19854;SDS011;10088;47.946;2.532;2023-10-19T13:10:10;53.23;;;30.70;;
19854;SDS011;10088;47.946;2.532;2023-10-19T13:12:39;114.53;;;68.57;;
19854;SDS011;10088;47.946;2.532;2023-10-19T13:15:05;60.73;;;36.23;;
19854;SDS011;10088;47.946;2.532;2023-10-19T13:17:38;26.63;;;15.77;;
19854;SDS011;10088;47.946;2.532;2023-10-19T13:20:03;164.80;;;101.07;;
19854;SDS011;10088;47.946;2.532;2023-10-19T13:22:41;6.77;;;4.40;;
19854;SDS011;10088;47.946;2.532;2023-10-19T13:25:06;11.23;;;7.57;;
19854;SDS011;10088;47.946;2.532;2023-10-19T13:27:34;54.43;;;37.47;;
19854;SDS011;10088;47.946;2.532;2023-10-19T13:29:59;1.97;;;1.00;;
19854;SDS011;10088;47.946;2.532;2023-10-19T13:32:28;4.73;;;1.07;;
19854;SDS011;10088;47.946;2.532;2023-10-19T13:34:53;1.97;;;0.50;;
19854;SDS011;10088;47.946;2.532;2023-10-19T13:37:18;2.73;;;0.57;;
19854;SDS011;10088;47.946;2.532;2023-10-19T13:39:43;1.50;;;0.50;;
19854;SDS011;10088;47.946;2.532;2023-10-19T13:42:09;1.10;;;0.43;;
19854;SDS011;10088;47.946;2.532;2023-10-19T13:44:35;1.63;;;0.50;;
19854;SDS011;10088;47.946;2.532;2023-10-19T13:47:00;3.43;;;0.40;;
19854;SDS011;10088;47.946;2.532;2023-10-19T13:49:29;0.63;;;0.40;;
19854;SDS011;10088;47.946;2.532;2023-10-19T13:51:55;0.60;;;0.40;;
19854;SDS011;10088;47.946;2.532;2023-10-19T13:54:20;6.63;;;2.90;;
19854;SDS011;10088;47.946;2.532;2023-10-19T13:56:45;1.10;;;0.80;;
19854;SDS011;10088;47.946;2.532;2023-10-19T13:59:11;16.13;;;14.07;;
19854;SDS011;10088;47.946;2.532;2023-10-19T14:01:37;2.40;;;1.10;;
19854;SDS011;10088;47.946;2.532;2023-10-19T14:04:03;2.57;;;0.80;;
19854;SDS011;10088;47.946;2.532;2023-10-19T14:06:28;0.60;;;0.43;;
19854;SDS011;10088;47.946;2.532;2023-10-19T14:08:53;2.17;;;0.60;;
19854;SDS011;10088;47.946;2.532;2023-10-19T14:11:19;1.50;;;0.30;;
19854;SDS011;10088;47.946;2.532;2023-10-19T14:13:46;2.90;;;1.00;;
19854;SDS011;10088;47.946;2.532;2023-10-19T14:16:12;2.97;;;0.67;;
19854;SDS011;10088;47.946;2.532;2023-10-19T14:18:37;1.20;;;0.40;;
19854;SDS011;10088;47.946;2.532;2023-10-19T14:21:15;3.93;;;2.33;;
19854;SDS011;10088;47.946;2.532;2023-10-19T14:23:41;14.80;;;8.33;;
19854;SDS011;10088;47.946;2.532;2023-10-19T14:26:08;2.50;;;1.73;;
19854;SDS011;10088;47.946;2.532;2023-10-19T14:28:34;3.83;;;2.63;;
19854;SDS011;10088;47.946;2.532;2023-10-19T14:31:01;2.97;;;0.70;;
19854;SDS011;10088;47.946;2.532;2023-10-19T14:33:26;0.50;;;0.40;;
19854;SDS011;10088;47.946;2.532;2023-10-19T14:35:51;1.20;;;0.73;;
19854;SDS011;10088;47.946;2.532;2023-10-19T14:38:17;1.30;;;0.60;;
19854;SDS011;10088;47.946;2.532;2023-10-19T14:40:43;1.90;;;0.77;;
19854;SDS011;10088;47.946;2.532;2023-10-19T14:43:10;7.53;;;0.50;;
19854;SDS011;10088;47.946;2.532;2023-10-19T14:45:35;14.37;;;10.23;;
19854;SDS011;10088;47.946;2.532;2023-10-19T14:48:01;13.10;;;9.27;;
19854;SDS011;10088;47.946;2.532;2023-10-19T14:50:33;10.23;;;7.27;;
19854;SDS011;10088;47.946;2.532;2023-10-19T14:52:59;4.73;;;1.90;;
19854;SDS011;10088;47.946;2.532;2023-10-19T14:55:25;4.23;;;3.03;;
19854;SDS011;10088;47.946;2.532;2023-10-19T14:57:51;1.40;;;1.10;;
19854;SDS011;10088;47.946;2.532;2023-10-19T15:00:24;1.90;;;1.13;;
19854;SDS011;10088;47.946;2.532;2023-10-19T15:03:09;4.10;;;2.27;;